Fergus Falls Municipal Airport - Einar Mickelson Field


Codes: KFFM/FFM
Name: Fergus Falls Municipal Airport - Einar Mickelson Field
City: Fergus Falls
Country: United States
Elevation: 1183 ft.
Website:
Wikipedia:

Photos at Fergus Falls Municipal Airport - Einar Mickelson Field


   Photos courtesy of SpottingLog. You can add your own sightings and photos by signing up for a free trial today.



No photos found.

Weather at Fergus Falls Municipal Airport - Einar Mickelson Field


Time (UTC)DescriptionTempratureWindCloud coverageVisibilityPressureHumidity
15-Apr-2024 18:00Light Rain12°C13 mph, E31%10000m1016hPa43%
15-Apr-2024 21:00Light Rain12°C16 mph, E67%10000m1015hPa46%
16-Apr-2024 00:00Overcast Clouds12°C18 mph, E100%10000m1013hPa53%
16-Apr-2024 03:00Overcast Clouds11°C18 mph, E99%10000m1013hPa60%
16-Apr-2024 06:00Overcast Clouds10°C20 mph, E99%10000m1011hPa60%
16-Apr-2024 09:00Light Rain11°C22 mph, E100%10000m1009hPa61%
16-Apr-2024 12:00Light Rain8°C25 mph, E100%6330m1008hPa74%
16-Apr-2024 15:00Light Rain9°C27 mph, E100%10000m1006hPa76%
16-Apr-2024 18:00Light Rain8°C25 mph, E100%7168m1005hPa83%
16-Apr-2024 21:00Moderate Rain7°C25 mph, E100%10000m1003hPa81%
17-Apr-2024 00:00Light Rain6°C18 mph, E100%8932m1003hPa86%
17-Apr-2024 03:00Light Rain4°C13 mph, NE100%10000m1003hPa89%
17-Apr-2024 06:00Light Rain5°C11 mph, NE100%10000m1003hPa90%
17-Apr-2024 09:00Light Rain5°C11 mph, N100%10000m1003hPa91%
17-Apr-2024 12:00Light Rain5°C11 mph, NW100%10000m1004hPa92%
17-Apr-2024 15:00Light Rain3°C13 mph, NW100%569m1006hPa95%
17-Apr-2024 18:00Light Rain4°C16 mph, N100%0m1008hPa94%
17-Apr-2024 21:00Overcast Clouds5°C16 mph, N100%0m1010hPa95%
18-Apr-2024 00:00Overcast Clouds7°C13 mph, NW91%10000m1011hPa72%
18-Apr-2024 03:00Broken Clouds5°C11 mph, NW74%10000m1014hPa67%
18-Apr-2024 06:00Broken Clouds4°C13 mph, NW73%10000m1015hPa68%
18-Apr-2024 09:00Few Clouds3°C13 mph, NW21%10000m1016hPa68%
18-Apr-2024 12:00Scattered Clouds2°C16 mph, W39%10000m1018hPa67%
18-Apr-2024 15:00Few Clouds3°C20 mph, NW11%10000m1019hPa54%
18-Apr-2024 18:00Broken Clouds4°C20 mph, NW55%10000m1019hPa50%
18-Apr-2024 21:00Overcast Clouds5°C22 mph, NW100%10000m1018hPa45%
19-Apr-2024 00:00Overcast Clouds4°C18 mph, NW100%10000m1019hPa50%
19-Apr-2024 03:00Broken Clouds2°C16 mph, NW71%10000m1021hPa56%
19-Apr-2024 06:00Scattered Clouds-0°C16 mph, NW40%10000m1021hPa60%
19-Apr-2024 09:00Clear Sky-2°C18 mph, NW9%10000m1021hPa64%
19-Apr-2024 12:00Scattered Clouds-2°C18 mph, NW33%10000m1022hPa62%
19-Apr-2024 15:00Overcast Clouds-1°C22 mph, NW100%10000m1023hPa51%
19-Apr-2024 18:00Overcast Clouds2°C22 mph, NW100%10000m1023hPa46%
19-Apr-2024 21:00Overcast Clouds3°C22 mph, NW100%10000m1023hPa46%
20-Apr-2024 00:00Overcast Clouds2°C18 mph, NW100%10000m1025hPa57%
20-Apr-2024 03:00Overcast Clouds0°C13 mph, NW97%10000m1027hPa70%
20-Apr-2024 06:00Overcast Clouds-1°C11 mph, NW89%10000m1029hPa74%
20-Apr-2024 09:00Overcast Clouds-2°C11 mph, NW88%10000m1029hPa70%
20-Apr-2024 12:00Overcast Clouds-2°C9 mph, NW94%10000m1029hPa70%
20-Apr-2024 15:00Overcast Clouds1°C9 mph, NW100%10000m1030hPa50%